Time;durP1;ratioP1;P1;durP2;ratioP2;P2;SDS_P1;SDS_P2;PMS_P1;PMS_P2;Temp;Humidity;BMP_temperature;BMP_pressure;BME280_temperature;BME280_humidity;BME280_pressure;Samples;Min_cycle;Max_cycle;Signal;HPM_P1;HPM_P2
2022/03/17 00:02:23;;;;;;;31.55;22.50;;;13.40;51.50;;;;;;5021649;28;20053;-44
2022/03/17 00:04:51;;;;;;;28.40;20.88;;;13.30;51.40;;;;;;5018837;28;20056;-42
2022/03/17 00:07:20;;;;;;;32.33;21.38;;;13.40;51.50;;;;;;5023237;28;20716;-42
2022/03/17 00:09:48;;;;;;;32.97;22.20;;;13.40;51.50;;;;;;5021541;28;20057;-42
2022/03/17 00:12:15;;;;;;;32.50;22.30;;;13.40;51.40;;;;;;5022647;28;20053;-42
2022/03/17 00:14:43;;;;;;;33.30;22.25;;;13.40;51.40;;;;;;5014746;28;20077;-42
2022/03/17 00:17:11;;;;;;;34.38;22.27;;;13.40;51.40;;;;;;5018042;28;20060;-42
2022/03/17 00:19:39;;;;;;;35.08;21.90;;;13.40;51.30;;;;;;5018630;28;20045;-42
2022/03/17 00:22:08;;;;;;;32.50;22.52;;;13.40;51.30;;;;;;5020019;28;20056;-42
2022/03/17 00:24:38;;;;;;;35.15;24.00;;;13.40;51.30;;;;;;5018980;28;20053;-45
2022/03/17 00:27:08;;;;;;;33.65;22.90;;;13.40;51.30;;;;;;5022950;28;20520;-42
2022/03/17 00:29:36;;;;;;;29.35;21.05;;;13.40;51.30;;;;;;5021316;28;20064;-41
2022/03/17 00:32:05;;;;;;;34.00;22.48;;;13.40;51.30;;;;;;5021519;28;20065;-43
2022/03/17 00:34:33;;;;;;;31.58;22.10;;;13.40;51.30;;;;;;5015864;28;20053;-42
2022/03/17 00:37:00;;;;;;;32.67;23.27;;;13.40;51.30;;;;;;5023229;28;20053;-42
2022/03/17 00:39:28;;;;;;;35.45;22.13;;;13.40;51.20;;;;;;5020978;28;20049;-42
2022/03/17 00:41:58;;;;;;;33.53;22.63;;;13.40;51.20;;;;;;5021868;28;20064;-42
2022/03/17 00:44:26;;;;;;;35.38;23.77;;;13.40;51.20;;;;;;5018524;28;20045;-42
2022/03/17 00:46:54;;;;;;;33.42;21.70;;;13.40;51.20;;;;;;5021562;28;20421;-42
2022/03/17 00:49:21;;;;;;;34.88;22.67;;;13.40;51.30;;;;;;5021206;28;20060;-41
2022/03/17 00:51:50;;;;;;;35.72;22.15;;;13.40;51.30;;;;;;5015338;28;20803;-42
2022/03/17 00:54:18;;;;;;;34.40;22.70;;;13.30;51.20;;;;;;5020294;28;20045;-42
2022/03/17 00:56:45;;;;;;;36.10;23.88;;;13.30;51.20;;;;;;5020406;28;20049;-42
2022/03/17 00:59:14;;;;;;;44.72;24.60;;;13.30;51.20;;;;;;5022969;28;20059;-42
2022/03/17 01:01:41;;;;;;;37.50;24.30;;;13.30;51.20;;;;;;5020351;28;20053;-43
2022/03/17 01:04:09;;;;;;;31.60;22.30;;;13.30;51.20;;;;;;5019436;28;20045;-42
2022/03/17 01:06:36;;;;;;;33.83;24.00;;;13.30;51.20;;;;;;5021846;28;20498;-41
2022/03/17 01:09:04;;;;;;;35.42;22.63;;;13.30;51.20;;;;;;5023217;28;20057;-41
2022/03/17 01:11:31;;;;;;;34.85;23.08;;;13.30;51.20;;;;;;5023284;28;20478;-42
2022/03/17 01:13:59;;;;;;;34.92;22.83;;;13.30;51.30;;;;;;5019110;28;20504;-43
2022/03/17 01:16:28;;;;;;;37.78;23.60;;;13.30;51.30;;;;;;5023131;28;20057;-42
2022/03/17 01:18:55;;;;;;;32.60;23.40;;;13.30;51.30;;;;;;5022259;28;20394;-42
2022/03/17 01:21:23;;;;;;;33.20;23.55;;;13.20;51.20;;;;;;5020632;28;20513;-42
2022/03/17 01:23:50;;;;;;;36.10;23.85;;;13.20;51.20;;;;;;5021443;28;20631;-44
2022/03/17 01:26:18;;;;;;;38.80;24.23;;;13.20;51.20;;;;;;5021945;28;21056;-42
2022/03/17 01:28:45;;;;;;;40.70;25.73;;;13.20;51.20;;;;;;5023040;28;20080;-42
2022/03/17 01:31:13;;;;;;;41.95;27.00;;;13.20;51.20;;;;;;5023157;28;20060;-42
2022/03/17 01:33:42;;;;;;;40.75;27.63;;;13.20;51.30;;;;;;5020900;28;20049;-42
2022/03/17 01:36:09;;;;;;;38.83;24.85;;;13.20;51.20;;;;;;5021860;28;20425;-42
2022/03/17 01:38:37;;;;;;;36.30;25.60;;;13.10;51.20;;;;;;5023432;28;20058;-42
2022/03/17 01:41:04;;;;;;;43.53;23.52;;;13.20;51.30;;;;;;5020869;28;20049;-42
2022/03/17 01:43:32;;;;;;;40.08;26.17;;;13.20;51.30;;;;;;5023317;28;20244;-42
2022/03/17 01:45:59;;;;;;;37.17;24.80;;;13.10;51.30;;;;;;5018584;28;20053;-41
2022/03/17 01:48:27;;;;;;;34.67;24.02;;;13.20;51.30;;;;;;5018861;28;20577;-42
2022/03/17 01:50:56;;;;;;;39.78;25.48;;;13.10;51.30;;;;;;5020932;28;20053;-42
2022/03/17 01:53:23;;;;;;;35.10;24.65;;;13.10;51.30;;;;;;5022489;28;20506;-43
2022/03/17 01:55:51;;;;;;;37.15;25.45;;;13.10;51.30;;;;;;5017281;28;20057;-42
2022/03/17 01:58:19;;;;;;;40.38;25.73;;;13.20;51.30;;;;;;5020980;28;20049;-42
2022/03/17 02:00:47;;;;;;;39.30;26.63;;;13.10;51.30;;;;;;5019375;28;20061;-42
2022/03/17 02:03:15;;;;;;;39.20;25.40;;;13.10;51.40;;;;;;5020832;28;20058;-42
2022/03/17 02:05:43;;;;;;;41.05;27.13;;;13.10;51.30;;;;;;5017833;28;20050;-43
2022/03/17 02:08:13;;;;;;;36.60;25.77;;;13.10;51.30;;;;;;5021627;28;20584;-42
2022/03/17 02:13:23;;;;;;;40.70;26.38;;;13.10;51.40;;;;;;5021149;28;20045;-42
2022/03/17 02:15:51;;;;;;;38.67;25.83;;;13.10;51.30;;;;;;5017016;28;20057;-42
2022/03/17 02:18:19;;;;;;;40.17;26.27;;;13.10;51.30;;;;;;5022399;28;20056;-42
2022/03/17 02:20:47;;;;;;;40.78;27.15;;;13.10;51.40;;;;;;5021887;28;20056;-42
2022/03/17 02:25:59;;;;;;;36.78;25.63;;;13.10;51.40;;;;;;4986782;28;20402;-43
2022/03/17 02:28:28;;;;;;;39.28;26.35;;;13.10;51.40;;;;;;5025350;28;20502;-42
2022/03/17 02:30:56;;;;;;;35.53;25.20;;;13.10;51.40;;;;;;5021559;28;20053;-42
2022/03/17 02:33:24;;;;;;;34.80;23.63;;;13.10;51.40;;;;;;5025368;28;20057;-42
2022/03/17 02:35:53;;;;;;;37.30;25.48;;;13.20;51.50;;;;;;5022647;28;20506;-52
2022/03/17 02:38:23;;;;;;;35.38;24.60;;;13.10;51.40;;;;;;5019488;28;20054;-42
2022/03/17 02:40:52;;;;;;;35.47;25.13;;;13.20;51.50;;;;;;5023829;28;20061;-43
2022/03/17 02:43:20;;;;;;;33.00;24.33;;;13.20;51.50;;;;;;5026343;28;20072;-42
2022/03/17 02:45:48;;;;;;;37.83;25.58;;;13.10;51.40;;;;;;5023616;28;20058;-45
2022/03/17 02:48:16;;;;;;;33.88;23.77;;;13.20;51.40;;;;;;5022498;28;20053;-42
2022/03/17 02:50:45;;;;;;;36.58;25.48;;;13.20;51.40;;;;;;5020169;28;20053;-42
2022/03/17 02:53:13;;;;;;;35.55;23.45;;;13.20;51.40;;;;;;5023495;28;20417;-42
2022/03/17 02:55:44;;;;;;;38.88;26.92;;;13.20;51.40;;;;;;5012560;28;20536;-42
2022/03/17 02:58:11;;;;;;;39.00;25.05;;;13.20;51.40;;;;;;5026390;28;20057;-42
2022/03/17 03:00:39;;;;;;;37.60;25.38;;;13.20;51.40;;;;;;5025604;28;20049;-42
2022/03/17 03:03:07;;;;;;;38.63;26.58;;;13.20;51.40;;;;;;5024559;28;20079;-42
2022/03/17 03:05:34;;;;;;;38.30;25.77;;;13.20;51.40;;;;;;5023635;28;20060;-42
2022/03/17 03:08:03;;;;;;;37.30;25.13;;;13.20;51.40;;;;;;5026508;28;20064;-42
2022/03/17 03:10:30;;;;;;;34.42;25.20;;;13.20;51.40;;;;;;5026179;28;20064;-41
2022/03/17 03:12:59;;;;;;;32.97;23.38;;;13.20;51.40;;;;;;5023918;28;20409;-42
2022/03/17 03:15:27;;;;;;;38.55;26.25;;;13.20;51.40;;;;;;5022725;28;20053;-42
2022/03/17 03:17:55;;;;;;;37.78;25.23;;;13.20;51.40;;;;;;5024709;28;20072;-43
2022/03/17 03:20:22;;;;;;;39.05;26.77;;;13.20;51.30;;;;;;5023540;28;20057;-43
2022/03/17 03:22:49;;;;;;;36.97;26.17;;;13.20;51.30;;;;;;5022088;28;20061;-42
2022/03/17 03:25:17;;;;;;;36.33;24.55;;;13.20;51.30;;;;;;5023069;28;20049;-42
2022/03/17 03:27:45;;;;;;;41.25;26.42;;;13.20;51.30;;;;;;5024678;28;20536;-42
2022/03/17 03:30:15;;;;;;;37.00;26.23;;;13.20;51.90;;;;;;5024530;28;20516;-42
2022/03/17 03:32:44;;;;;;;38.10;26.15;;;13.20;51.40;;;;;;5023406;28;20053;-42
2022/03/17 03:37:58;;;;;;;37.22;26.23;;;13.20;51.40;;;;;;5031118;28;20056;-42
2022/03/17 03:40:27;;;;;;;38.58;26.30;;;13.20;51.40;;;;;;5024686;28;20053;-42
2022/03/17 03:42:54;;;;;;;38.78;26.38;;;13.20;51.40;;;;;;5021848;28;20087;-45
2022/03/17 03:45:23;;;;;;;38.95;27.00;;;13.20;51.40;;;;;;5021804;28;20061;-41
2022/03/17 03:47:50;;;;;;;37.85;25.98;;;13.20;51.40;;;;;;5024427;28;20053;-41
2022/03/17 03:50:18;;;;;;;36.22;25.55;;;13.20;51.40;;;;;;5022802;28;20069;-42
2022/03/17 03:52:46;;;;;;;41.50;27.52;;;13.20;51.30;;;;;;5021012;28;20050;-43
2022/03/17 03:55:13;;;;;;;38.45;26.90;;;13.20;51.30;;;;;;5021817;28;20057;-45
2022/03/17 03:57:42;;;;;;;43.50;29.20;;;13.20;51.30;;;;;;5023415;28;20050;-42
2022/03/17 04:00:22;;;;;;;41.55;28.55;;;13.20;51.30;;;;;;5022387;28;20418;-42
2022/03/17 04:02:51;;;;;;;41.03;27.27;;;13.20;51.30;;;;;;5020783;28;20064;-44
2022/03/17 04:05:19;;;;;;;39.17;27.73;;;13.20;51.30;;;;;;5019812;28;20088;-42
2022/03/17 04:07:47;;;;;;;43.58;29.25;;;13.10;51.30;;;;;;5024464;28;20049;-43
2022/03/17 04:10:14;;;;;;;38.15;27.67;;;13.20;51.40;;;;;;5021975;28;20076;-43
2022/03/17 04:12:42;;;;;;;39.17;26.50;;;13.20;51.40;;;;;;5021609;28;20045;-45
2022/03/17 04:15:10;;;;;;;38.92;28.23;;;13.20;51.40;;;;;;5019432;28;20076;-42
2022/03/17 04:17:37;;;;;;;35.85;26.48;;;13.20;51.40;;;;;;5024673;28;20501;-42
2022/03/17 04:20:08;;;;;;;36.67;25.48;;;13.20;51.40;;;;;;5022870;28;20053;-42
2022/03/17 04:22:36;;;;;;;41.63;26.95;;;13.20;51.50;;;;;;5021137;28;20506;-43
2022/03/17 04:25:05;;;;;;;38.03;25.85;;;13.20;51.40;;;;;;5020871;28;20072;-43
2022/03/17 04:27:33;;;;;;;36.58;25.92;;;13.20;51.40;;;;;;5023614;28;20060;-43
2022/03/17 04:30:00;;;;;;;37.95;26.58;;;13.20;51.40;;;;;;5023554;28;20053;-42
2022/03/17 04:32:28;;;;;;;40.40;27.38;;;13.30;51.40;;;;;;5021023;28;20057;-42
2022/03/17 04:34:55;;;;;;;40.45;28.88;;;13.20;51.40;;;;;;5019787;28;20441;-42
2022/03/17 04:37:24;;;;;;;39.70;28.25;;;13.20;51.40;;;;;;5024411;28;20050;-42
2022/03/17 04:39:51;;;;;;;38.92;27.13;;;13.30;51.40;;;;;;5023422;28;20057;-42
2022/03/17 04:42:19;;;;;;;39.53;27.08;;;13.30;51.50;;;;;;5018441;28;20050;-42
2022/03/17 04:44:46;;;;;;;42.72;28.80;;;13.30;51.50;;;;;;5017867;28;20057;-42
2022/03/17 04:47:15;;;;;;;41.88;29.02;;;13.20;51.50;;;;;;5021647;28;20053;-42
2022/03/17 04:49:43;;;;;;;42.55;29.38;;;13.20;51.40;;;;;;5021588;28;20054;-42
2022/03/17 04:54:53;;;;;;;40.50;27.98;;;13.30;51.40;;;;;;5020255;28;20058;-42
2022/03/17 04:57:24;;;;;;;42.03;30.17;;;13.30;51.40;;;;;;5023854;28;20528;-42
2022/03/17 04:59:52;;;;;;;43.70;28.95;;;13.30;51.40;;;;;;5021016;28;20056;-42
2022/03/17 05:02:19;;;;;;;41.15;28.27;;;13.30;51.40;;;;;;5021155;28;20064;-42
2022/03/17 05:04:47;;;;;;;42.88;29.38;;;13.30;51.50;;;;;;5018941;28;20065;-43
2022/03/17 05:07:14;;;;;;;40.08;27.80;;;13.30;51.40;;;;;;5023230;28;20053;-45
2022/03/17 05:09:41;;;;;;;39.30;28.25;;;13.30;51.50;;;;;;5022102;28;20057;-45
2022/03/17 05:12:11;;;;;;;39.35;27.40;;;13.30;51.40;;;;;;5021666;28;20056;-42
2022/03/17 05:14:38;;;;;;;41.10;29.73;;;13.30;51.50;;;;;;5017221;28;20069;-42
2022/03/17 05:17:06;;;;;;;41.67;29.13;;;13.30;51.50;;;;;;5008703;28;20060;-45
2022/03/17 05:19:34;;;;;;;41.13;28.52;;;13.30;51.50;;;;;;5019807;28;20405;-43
2022/03/17 05:22:02;;;;;;;39.47;26.98;;;13.30;51.60;;;;;;5018380;28;20054;-42
2022/03/17 05:24:30;;;;;;;37.30;26.60;;;13.40;51.70;;;;;;5019055;28;20068;-42
2022/03/17 05:26:58;;;;;;;41.80;27.55;;;13.40;51.70;;;;;;5022520;28;20413;-44
2022/03/17 05:29:27;;;;;;;45.15;28.45;;;13.40;51.70;;;;;;5021205;28;20060;-42
2022/03/17 05:31:55;;;;;;;37.13;25.73;;;13.40;51.80;;;;;;5020903;28;20049;-42
2022/03/17 05:34:23;;;;;;;35.92;25.02;;;13.40;52.00;;;;;;5017315;28;20049;-42
2022/03/17 05:36:51;;;;;;;45.00;30.73;;;13.40;52.10;;;;;;5021701;28;20045;-42
2022/03/17 05:39:19;;;;;;;38.67;27.00;;;13.50;52.20;;;;;;5022218;28;20057;-42
2022/03/17 05:41:46;;;;;;;41.65;28.45;;;13.50;52.20;;;;;;5019969;28;20065;-42
2022/03/17 05:44:14;;;;;;;39.17;26.88;;;13.40;52.30;;;;;;5017296;28;20064;-43
2022/03/17 05:46:43;;;;;;;45.03;29.85;;;13.50;52.40;;;;;;5020689;28;20417;-42
2022/03/17 05:49:10;;;;;;;43.95;29.73;;;13.50;52.50;;;;;;5019617;28;20049;-42
2022/03/17 05:51:38;;;;;;;40.25;28.17;;;13.50;52.60;;;;;;5019662;28;20060;-42
2022/03/17 05:54:06;;;;;;;36.55;27.35;;;13.50;52.70;;;;;;5018114;28;20486;-42
2022/03/17 05:56:34;;;;;;;40.05;28.65;;;13.50;52.80;;;;;;5018325;28;20053;-42
2022/03/17 05:59:02;;;;;;;49.88;29.63;;;13.50;52.90;;;;;;5020096;28;20064;-42
2022/03/17 06:01:29;;;;;;;39.80;28.52;;;13.50;53.00;;;;;;5019044;28;20057;-45
2022/03/17 06:03:58;;;;;;;73.85;43.45;;;13.50;53.00;;;;;;4999042;28;21366;-43
2022/03/17 06:06:26;;;;;;;69.00;40.33;;;13.50;53.20;;;;;;5022435;28;20486;-42
2022/03/17 06:08:53;;;;;;;52.10;35.03;;;13.50;53.20;;;;;;5017757;28;20056;-42
2022/03/17 06:11:21;;;;;;;41.25;29.00;;;13.40;53.30;;;;;;5010116;28;20049;-46
2022/03/17 06:13:49;;;;;;;42.40;29.77;;;13.40;53.50;;;;;;5013491;28;20053;-43
2022/03/17 06:16:16;;;;;;;42.28;29.50;;;13.40;53.60;;;;;;5019691;28;20052;-42
2022/03/17 06:18:44;;;;;;;41.55;29.58;;;13.40;53.60;;;;;;5017572;28;20057;-43
2022/03/17 06:21:13;;;;;;;42.58;30.13;;;13.40;53.80;;;;;;5022139;28;20054;-44
2022/03/17 06:23:40;;;;;;;40.45;28.23;;;13.40;53.90;;;;;;5018133;28;20117;-43
2022/03/17 06:26:08;;;;;;;42.65;29.13;;;13.40;54.00;;;;;;5022059;28;20057;-42
2022/03/17 06:28:35;;;;;;;44.53;31.83;;;13.40;54.00;;;;;;5020530;28;20061;-44
2022/03/17 06:31:03;;;;;;;43.38;28.85;;;13.40;54.10;;;;;;5017775;28;20052;-42
2022/03/17 06:33:30;;;;;;;44.10;31.55;;;13.40;54.20;;;;;;5019427;28;20061;-42
2022/03/17 06:35:58;;;;;;;62.28;36.67;;;13.40;54.30;;;;;;5019456;28;20486;-42
2022/03/17 06:38:27;;;;;;;52.58;34.47;;;13.40;54.40;;;;;;5020116;28;20073;-42
2022/03/17 06:40:55;;;;;;;50.45;33.63;;;13.40;54.60;;;;;;5020381;28;20053;-42
2022/03/17 06:43:22;;;;;;;60.30;36.05;;;13.40;54.90;;;;;;5021189;28;20061;-42
2022/03/17 06:45:50;;;;;;;57.20;35.47;;;13.40;55.30;;;;;;5003324;28;20061;-42
2022/03/17 06:48:17;;;;;;;56.80;34.97;;;13.30;55.40;;;;;;5017629;28;20060;-42
2022/03/17 06:50:45;;;;;;;59.15;38.35;;;13.40;55.80;;;;;;5018624;28;20053;-42
2022/03/17 06:53:13;;;;;;;59.65;39.13;;;13.30;56.80;;;;;;5019838;28;20042;-42
2022/03/17 06:55:41;;;;;;;50.28;35.20;;;13.30;57.10;;;;;;5017723;28;20429;-42
2022/03/17 06:58:09;;;;;;;51.63;32.50;;;13.20;57.20;;;;;;5020677;28;20053;-42
2022/03/17 07:00:37;;;;;;;46.47;29.17;;;13.20;57.30;;;;;;5017448;28;20061;-42
2022/03/17 07:03:07;;;;;;;41.63;26.30;;;13.20;58.00;;;;;;5019195;28;20064;-43
2022/03/17 07:05:35;;;;;;;38.88;24.80;;;13.20;58.80;;;;;;5021984;28;20084;-42
2022/03/17 07:08:03;;;;;;;34.13;22.70;;;13.10;60.20;;;;;;5024896;28;20053;-42
2022/03/17 07:10:31;;;;;;;35.72;23.45;;;13.00;60.20;;;;;;5024600;28;20060;-43
2022/03/17 07:13:01;;;;;;;35.95;23.83;;;13.00;60.90;;;;;;5024682;28;20068;-42
2022/03/17 07:15:29;;;;;;;35.20;23.05;;;12.90;61.50;;;;;;5018719;28;20128;-44
2022/03/17 07:17:57;;;;;;;34.08;24.45;;;12.90;61.70;;;;;;5022375;28;20501;-42
2022/03/17 07:20:24;;;;;;;34.10;23.00;;;12.80;62.30;;;;;;5022418;28;20057;-42
2022/03/17 07:22:53;;;;;;;31.63;21.17;;;12.80;62.20;;;;;;5020364;28;20429;-43
2022/03/17 07:25:23;;;;;;;32.33;21.90;;;12.80;62.30;;;;;;5022579;28;20052;-42
2022/03/17 07:27:51;;;;;;;30.55;21.27;;;12.70;63.00;;;;;;5023364;28;20508;-43
2022/03/17 07:30:22;;;;;;;29.83;20.40;;;12.70;63.40;;;;;;5022630;28;20056;-44
2022/03/17 07:32:52;;;;;;;31.80;21.42;;;12.60;63.80;;;;;;5021694;28;20065;-43
2022/03/17 07:35:22;;;;;;;32.85;21.52;;;12.50;64.20;;;;;;5020436;28;20264;-42
2022/03/17 07:37:50;;;;;;;33.90;22.92;;;12.50;64.40;;;;;;5020329;28;20057;-42
2022/03/17 07:40:17;;;;;;;37.03;24.52;;;12.50;64.40;;;;;;5022819;28;20049;-42
2022/03/17 07:42:45;;;;;;;40.63;25.45;;;12.50;64.60;;;;;;5024295;28;20050;-43
2022/03/17 07:45:12;;;;;;;36.50;23.77;;;12.50;64.70;;;;;;5019559;28;20490;-44
2022/03/17 07:47:47;;;;;;;45.50;28.40;;;12.50;64.60;;;;;;5024392;28;20517;-42
2022/03/17 07:50:14;;;;;;;42.42;27.10;;;12.40;64.90;;;;;;5022097;28;20482;-43
2022/03/17 07:52:42;;;;;;;58.38;33.60;;;12.40;64.70;;;;;;5022806;28;20053;-44
2022/03/17 07:55:10;;;;;;;55.55;33.58;;;12.30;64.80;;;;;;5023856;28;20068;-42
2022/03/17 07:57:38;;;;;;;54.25;31.95;;;12.30;65.00;;;;;;5025158;28;20084;-42
2022/03/17 08:00:09;;;;;;;50.72;31.45;;;12.20;64.90;;;;;;5022109;28;20080;-42
2022/03/17 08:02:36;;;;;;;54.20;31.90;;;12.00;64.90;;;;;;5023182;28;20057;-42
2022/03/17 08:05:06;;;;;;;52.42;28.73;;;11.90;65.30;;;;;;5021607;28;20068;-42
2022/03/17 08:07:33;;;;;;;46.40;28.35;;;11.80;65.40;;;;;;5022087;28;20494;-42
2022/03/17 08:10:02;;;;;;;45.15;27.70;;;11.70;65.90;;;;;;5023097;28;20062;-42
2022/03/17 08:12:31;;;;;;;47.50;28.15;;;11.70;66.00;;;;;;5021239;28;20068;-42
2022/03/17 08:14:59;;;;;;;46.50;27.95;;;11.60;66.10;;;;;;5017511;28;20049;-43
2022/03/17 08:17:27;;;;;;;46.40;25.95;;;11.60;66.40;;;;;;5020432;28;20049;-42
2022/03/17 08:19:55;;;;;;;39.42;25.08;;;11.50;66.30;;;;;;5020395;28;20049;-42
2022/03/17 08:22:24;;;;;;;43.20;25.20;;;11.40;66.30;;;;;;5022639;28;20053;-44
2022/03/17 08:24:52;;;;;;;43.85;23.88;;;11.40;66.60;;;;;;5021436;28;20050;-42
2022/03/17 08:27:19;;;;;;;41.28;23.98;;;11.30;66.30;;;;;;5024763;28;20068;-42
2022/03/17 08:29:48;;;;;;;39.50;21.63;;;11.30;66.50;;;;;;5022846;28;20057;-42
2022/03/17 08:32:16;;;;;;;34.75;21.17;;;11.30;66.40;;;;;;5022381;28;20517;-42
2022/03/17 08:34:43;;;;;;;32.40;19.85;;;11.20;66.10;;;;;;5019713;28;20054;-42
2022/03/17 08:37:11;;;;;;;34.47;20.42;;;11.20;66.20;;;;;;5022983;28;20064;-42
2022/03/17 08:39:40;;;;;;;30.17;18.13;;;11.10;66.30;;;;;;5017518;28;20064;-42
2022/03/17 08:42:08;;;;;;;33.80;18.85;;;11.10;66.20;;;;;;5018137;28;20046;-42
2022/03/17 08:44:35;;;;;;;28.75;16.58;;;11.10;66.30;;;;;;5013495;28;20049;-43
2022/03/17 08:49:48;;;;;;;28.42;15.40;;;11.10;65.80;;;;;;5020009;28;20064;-43
2022/03/17 08:52:15;;;;;;;26.83;15.13;;;11.10;65.60;;;;;;5021128;28;20064;-43
2022/03/17 08:54:44;;;;;;;24.55;14.85;;;11.10;65.40;;;;;;5022707;28;20050;-43
2022/03/17 08:57:13;;;;;;;21.35;13.35;;;11.10;65.50;;;;;;5022535;28;20061;-43
2022/03/17 08:59:41;;;;;;;26.27;13.88;;;11.00;65.20;;;;;;5021123;28;20064;-42
2022/03/17 09:02:11;;;;;;;21.15;11.48;;;11.00;65.10;;;;;;5021512;28;20045;-43
2022/03/17 09:04:39;;;;;;;20.73;11.98;;;11.00;64.80;;;;;;5019648;28;20052;-42
2022/03/17 09:07:08;;;;;;;19.00;11.73;;;11.00;64.70;;;;;;5022704;28;20521;-42
2022/03/17 09:09:37;;;;;;;16.30;11.50;;;11.00;64.70;;;;;;5021665;28;20072;-43
2022/03/17 09:12:08;;;;;;;23.35;12.50;;;11.00;64.50;;;;;;5020802;28;20426;-42
2022/03/17 09:14:37;;;;;;;19.80;12.60;;;11.00;64.50;;;;;;5010869;28;20060;-43
2022/03/17 09:17:05;;;;;;;21.75;11.65;;;11.00;63.80;;;;;;5014638;28;20050;-42
2022/03/17 09:19:32;;;;;;;18.65;10.85;;;10.90;63.30;;;;;;5010095;28;20061;-47
2022/03/17 09:22:00;;;;;;;20.27;11.15;;;10.90;63.10;;;;;;5012491;28;20054;-42
2022/03/17 09:24:30;;;;;;;22.48;10.75;;;10.90;63.10;;;;;;5012045;28;20045;-42
2022/03/17 09:26:58;;;;;;;19.65;10.80;;;10.90;63.10;;;;;;5013865;28;20493;-43
2022/03/17 09:29:28;;;;;;;18.30;10.90;;;10.90;62.90;;;;;;5013930;28;20554;-42
2022/03/17 09:31:58;;;;;;;22.42;10.60;;;10.90;62.80;;;;;;5018080;28;20056;-43
2022/03/17 09:34:25;;;;;;;16.15;11.05;;;10.90;62.90;;;;;;5018176;28;20397;-42
2022/03/17 09:36:53;;;;;;;19.30;11.55;;;11.00;63.00;;;;;;5020918;28;20828;-42
2022/03/17 09:42:05;;;;;;;21.50;11.35;;;10.90;62.20;;;;;;5027501;28;21058;-42
2022/03/17 09:44:35;;;;;;;20.88;10.88;;;11.00;62.30;;;;;;5018314;28;20049;-45
2022/03/17 09:47:04;;;;;;;17.38;9.13;;;10.90;61.20;;;;;;5019952;28;20552;-43
2022/03/17 09:49:33;;;;;;;12.32;8.75;;;10.90;61.20;;;;;;5016606;28;20054;-45
2022/03/17 09:52:05;;;;;;;15.88;8.27;;;10.90;61.30;;;;;;5019088;28;20049;-43
2022/03/17 09:54:35;;;;;;;12.93;7.07;;;10.90;60.10;;;;;;5021285;28;20054;-45
2022/03/17 09:57:03;;;;;;;12.93;6.97;;;10.80;59.60;;;;;;4982089;28;1148000;-45
2022/03/17 09:59:31;;;;;;;18.48;7.60;;;10.80;59.80;;;;;;5021299;28;20478;-43
2022/03/17 10:02:01;;;;;;;14.32;7.43;;;10.80;59.30;;;;;;5021333;28;20057;-42
2022/03/17 10:04:32;;;;;;;16.98;8.30;;;10.80;59.70;;;;;;5018634;28;20053;-42
2022/03/17 10:07:01;;;;;;;15.23;7.70;;;10.80;59.70;;;;;;5020322;28;20506;-44
2022/03/17 10:09:29;;;;;;;10.75;6.80;;;10.80;59.50;;;;;;5021014;28;20521;-42
2022/03/17 10:12:04;;;;;;;11.32;6.60;;;10.80;59.60;;;;;;5020999;28;20064;-44
2022/03/17 10:14:39;;;;;;;9.73;6.72;;;10.90;59.30;;;;;;5021478;28;20045;-42
2022/03/17 10:17:10;;;;;;;10.55;5.90;;;10.90;59.00;;;;;;5021597;28;20057;-44
2022/03/17 10:19:38;;;;;;;11.73;7.07;;;10.90;59.10;;;;;;5021104;28;20057;-44
2022/03/17 10:22:12;;;;;;;14.27;6.90;;;10.90;58.80;;;;;;5022347;28;20502;-42
2022/03/17 10:24:52;;;;;;;15.25;6.95;;;10.90;58.80;;;;;;5019714;28;20054;-45
2022/03/17 10:27:38;;;;;;;12.85;6.82;;;10.90;59.20;;;;;;5022359;28;20060;-42
2022/03/17 10:30:07;;;;;;;13.93;6.90;;;10.90;59.00;;;;;;5020657;28;20061;-42
2022/03/17 10:32:36;;;;;;;11.52;6.43;;;11.00;59.10;;;;;;5021151;28;20497;-42
2022/03/17 10:35:07;;;;;;;13.02;6.60;;;11.00;59.10;;;;;;5017320;28;20045;-46
2022/03/17 10:37:36;;;;;;;13.10;6.88;;;11.00;59.20;;;;;;5018581;28;20421;-43
2022/03/17 10:40:10;;;;;;;12.57;6.97;;;11.00;59.60;;;;;;5023720;28;20084;-43
2022/03/17 10:42:39;;;;;;;18.42;7.15;;;11.00;59.40;;;;;;5025848;28;20053;-46
2022/03/17 10:45:08;;;;;;;12.38;6.53;;;11.00;59.30;;;;;;5022873;28;20056;-42
2022/03/17 10:47:38;;;;;;;11.35;5.45;;;10.90;59.30;;;;;;5025486;28;20072;-42
2022/03/17 10:50:11;;;;;;;11.18;6.55;;;10.90;59.30;;;;;;5021928;28;20049;-42
2022/03/17 10:52:50;;;;;;;10.73;4.40;;;10.90;59.50;;;;;;5024926;28;20061;-43
2022/03/17 10:55:22;;;;;;;11.23;4.97;;;11.00;58.80;;;;;;5025058;28;20076;-42
2022/03/17 10:57:50;;;;;;;11.43;4.55;;;11.00;58.90;;;;;;5026204;28;20065;-44
2022/03/17 11:00:23;;;;;;;9.57;3.95;;;11.00;58.50;;;;;;5025589;28;20485;-42
2022/03/17 11:02:56;;;;;;;9.20;3.95;;;11.00;58.50;;;;;;5021727;28;20497;-43
2022/03/17 11:05:26;;;;;;;9.07;4.20;;;11.10;58.80;;;;;;5022176;28;20049;-43
2022/03/17 11:07:55;;;;;;;8.07;3.58;;;11.00;58.30;;;;;;5024456;28;20391;-42
2022/03/17 11:10:23;;;;;;;9.50;3.90;;;11.00;58.20;;;;;;5021806;28;20061;-42
2022/03/17 11:12:51;;;;;;;11.80;4.38;;;11.10;57.90;;;;;;5022661;28;20423;-46
2022/03/17 11:15:34;;;;;;;17.20;4.65;;;11.10;58.00;;;;;;5022138;28;20050;-43
2022/03/17 11:18:06;;;;;;;9.88;4.45;;;11.10;58.30;;;;;;5023755;28;20056;-42
2022/03/17 11:20:34;;;;;;;10.43;4.90;;;11.10;58.60;;;;;;5023396;28;20061;-48
2022/03/17 11:23:09;;;;;;;14.48;5.20;;;11.10;58.50;;;;;;5022035;28;20073;-44
2022/03/17 11:25:37;;;;;;;10.68;5.32;;;11.10;58.70;;;;;;5022899;28;20079;-42
2022/03/17 11:28:06;;;;;;;12.75;6.20;;;11.20;58.70;;;;;;5023510;28;20505;-44
2022/03/17 11:30:43;;;;;;;12.55;5.82;;;11.20;58.70;;;;;;5023062;28;20061;-42
2022/03/17 11:33:28;;;;;;;12.02;5.95;;;11.20;58.70;;;;;;5022631;28;20069;-46
2022/03/17 11:35:59;;;;;;;14.27;6.28;;;11.30;58.80;;;;;;5022775;28;20506;-44
2022/03/17 11:38:29;;;;;;;15.45;6.32;;;11.30;58.50;;;;;;5023442;28;20053;-45
2022/03/17 11:41:08;;;;;;;13.63;5.40;;;11.40;58.40;;;;;;5023392;28;20053;-43
2022/03/17 11:43:40;;;;;;;13.68;5.40;;;11.40;58.20;;;;;;5022722;28;20057;-44
2022/03/17 11:46:12;;;;;;;10.02;5.13;;;11.50;58.10;;;;;;5023699;28;20057;-44
2022/03/17 11:48:41;;;;;;;7.75;4.30;;;11.40;58.00;;;;;;5024410;28;20056;-42
2022/03/17 11:51:10;;;;;;;9.45;4.57;;;11.50;57.90;;;;;;5024927;28;20057;-47
2022/03/17 11:53:40;;;;;;;10.20;4.80;;;11.40;57.80;;;;;;5023833;28;20509;-44
2022/03/17 11:56:10;;;;;;;15.48;5.05;;;11.50;57.60;;;;;;5023842;28;20056;-45
2022/03/17 11:58:42;;;;;;;12.10;4.70;;;11.40;57.50;;;;;;5024323;28;20068;-43
2022/03/17 12:01:12;;;;;;;14.48;4.70;;;11.40;57.50;;;;;;5024387;28;20049;-43
2022/03/17 12:03:44;;;;;;;9.40;5.15;;;11.40;57.60;;;;;;5020204;28;20053;-44
2022/03/17 12:06:15;;;;;;;10.63;4.35;;;11.40;57.70;;;;;;5024112;28;20053;-44
2022/03/17 12:08:49;;;;;;;10.55;3.95;;;11.30;57.40;;;;;;5023951;28;20053;-45
2022/03/17 12:11:19;;;;;;;10.75;3.90;;;11.20;57.20;;;;;;5022596;28;20486;-43
2022/03/17 12:14:22;;;;;;;8.75;4.13;;;11.20;57.30;;;;;;5016222;28;20068;-44
2022/03/17 12:16:52;;;;;;;10.13;3.50;;;11.10;57.30;;;;;;5016083;28;20052;-43
2022/03/17 12:19:35;;;;;;;12.90;5.05;;;11.10;57.30;;;;;;5012345;28;20136;-42
2022/03/17 12:22:13;;;;;;;10.98;6.03;;;11.10;57.40;;;;;;5020519;28;20493;-42
2022/03/17 12:24:45;;;;;;;12.98;5.93;;;11.10;57.40;;;;;;5021768;28;20056;-43
2022/03/17 12:27:28;;;;;;;15.38;6.18;;;11.10;57.30;;;;;;5019152;28;20060;-43
2022/03/17 12:29:58;;;;;;;9.65;6.13;;;11.20;57.30;;;;;;5020636;28;20398;-42
2022/03/17 12:32:26;;;;;;;17.92;7.38;;;11.20;56.90;;;;;;5018458;28;20045;-42
2022/03/17 12:34:57;;;;;;;11.27;7.45;;;11.20;56.80;;;;;;5014794;28;20062;-45
2022/03/17 12:37:26;;;;;;;17.52;8.05;;;11.20;56.60;;;;;;5024076;28;20057;-43
2022/03/17 12:39:55;;;;;;;16.45;7.40;;;11.20;55.90;;;;;;5019084;28;20518;-45
2022/03/17 12:42:24;;;;;;;14.57;6.80;;;11.20;56.10;;;;;;5021211;28;20068;-42
2022/03/17 12:44:54;;;;;;;19.38;5.85;;;11.20;56.00;;;;;;5019258;28;20505;-43
2022/03/17 12:47:24;;;;;;;13.45;4.90;;;11.30;56.00;;;;;;5020861;28;20049;-43
2022/03/17 12:49:53;;;;;;;12.13;4.55;;;11.30;55.90;;;;;;5017359;28;20045;-43
2022/03/17 12:52:24;;;;;;;9.60;4.85;;;11.40;56.10;;;;;;5018134;28;20053;-43
2022/03/17 12:54:53;;;;;;;8.98;4.80;;;11.40;55.80;;;;;;5019418;28;20057;-43
2022/03/17 12:57:22;;;;;;;11.40;6.20;;;11.50;55.70;;;;;;5017511;28;20045;-42